Time;durP1;ratioP1;P1;durP2;ratioP2;P2;SDS_P1;SDS_P2;PMS_P1;PMS_P2;Temp;Humidity;BMP_temperature;BMP_pressure;BME280_temperature;BME280_humidity;BME280_pressure;Samples;Min_cycle;Max_cycle;Signal;HPM_P1;HPM_P2
2022/03/15 00:00:55;;;;;;;13.50;5.00;;;7.30;99.90;;;;;;5077023;28;20021;-78
2022/03/15 00:03:22;;;;;;;12.77;5.20;;;7.30;99.90;;;;;;5072644;28;20024;-78
2022/03/15 00:05:47;;;;;;;11.90;4.93;;;7.30;99.90;;;;;;5072173;28;20037;-77
2022/03/15 00:08:13;;;;;;;8.52;4.50;;;7.20;99.90;;;;;;5072563;28;20032;-77
2022/03/15 00:10:39;;;;;;;15.25;5.13;;;7.30;99.90;;;;;;5072740;28;20484;-78
2022/03/15 00:13:07;;;;;;;7.40;4.38;;;7.20;99.90;;;;;;5072197;28;20107;-78
2022/03/15 00:15:34;;;;;;;9.68;4.63;;;7.20;99.90;;;;;;5073466;28;20024;-79
2022/03/15 00:17:59;;;;;;;13.35;4.85;;;7.30;99.90;;;;;;5072708;28;20033;-78
2022/03/15 00:20:25;;;;;;;8.55;5.40;;;7.20;99.90;;;;;;5071800;28;20028;-78
2022/03/15 00:22:52;;;;;;;13.25;5.05;;;7.20;99.90;;;;;;5072674;28;20028;-78
2022/03/15 00:25:18;;;;;;;11.63;5.53;;;7.20;99.90;;;;;;5071891;28;20104;-78
2022/03/15 00:27:45;;;;;;;11.10;6.20;;;7.20;99.90;;;;;;5071753;28;20047;-78
2022/03/15 00:30:11;;;;;;;11.32;6.35;;;7.20;99.90;;;;;;5072041;28;20052;-78
2022/03/15 00:32:37;;;;;;;8.40;5.13;;;7.20;99.90;;;;;;5072161;28;20033;-77
2022/03/15 00:35:16;;;;;;;15.52;5.57;;;7.20;99.90;;;;;;5071939;28;20037;-78
2022/03/15 00:37:41;;;;;;;8.93;4.82;;;7.20;99.90;;;;;;5072509;28;20025;-78
2022/03/15 00:40:08;;;;;;;9.75;4.93;;;7.20;99.90;;;;;;5071296;28;20570;-77
2022/03/15 00:42:33;;;;;;;10.57;5.82;;;7.20;99.90;;;;;;5072185;28;20480;-77
2022/03/15 00:45:01;;;;;;;19.15;6.90;;;7.20;99.90;;;;;;5072119;28;20029;-80
2022/03/15 00:47:27;;;;;;;16.90;5.70;;;7.20;99.90;;;;;;5071242;28;20032;-76
2022/03/15 00:49:53;;;;;;;7.45;5.22;;;7.20;99.90;;;;;;5072070;28;20033;-77
2022/03/15 00:52:18;;;;;;;17.25;6.40;;;7.20;99.90;;;;;;5071843;28;20037;-78
2022/03/15 00:54:44;;;;;;;14.50;6.03;;;7.20;99.90;;;;;;5071558;28;20024;-77
2022/03/15 00:57:10;;;;;;;8.57;5.25;;;7.20;99.90;;;;;;5071712;28;20139;-76
2022/03/15 00:59:36;;;;;;;13.38;6.32;;;7.30;99.90;;;;;;5072093;28;20044;-78
2022/03/15 01:02:02;;;;;;;15.18;6.50;;;7.30;99.90;;;;;;5073269;28;20033;-77
2022/03/15 01:04:28;;;;;;;20.65;6.30;;;7.30;99.90;;;;;;5075966;28;20050;-77
2022/03/15 01:06:53;;;;;;;17.80;8.18;;;7.40;99.90;;;;;;5076163;28;20083;-78
2022/03/15 01:09:19;;;;;;;16.70;6.60;;;7.40;99.90;;;;;;5075279;28;20021;-78
2022/03/15 01:11:44;;;;;;;20.30;7.82;;;7.40;99.90;;;;;;5075504;28;20032;-77
2022/03/15 01:14:10;;;;;;;15.32;6.85;;;7.40;99.90;;;;;;5095938;28;20031;-76
2022/03/15 01:16:36;;;;;;;12.10;6.10;;;7.40;99.90;;;;;;5095881;28;20028;-78
2022/03/15 01:19:01;;;;;;;17.00;7.22;;;7.40;99.90;;;;;;5096640;28;20024;-77
2022/03/15 01:21:28;;;;;;;13.00;7.80;;;7.40;99.90;;;;;;5096087;28;20104;-76
2022/03/15 01:23:53;;;;;;;23.45;8.40;;;7.50;99.90;;;;;;5095517;28;20043;-77
2022/03/15 01:26:19;;;;;;;18.33;9.75;;;7.40;99.90;;;;;;5095883;28;20016;-78
2022/03/15 01:28:45;;;;;;;25.70;11.23;;;7.50;99.90;;;;;;5096062;28;20027;-78
2022/03/15 01:31:11;;;;;;;21.65;12.65;;;7.50;99.90;;;;;;5095144;28;20040;-79
2022/03/15 01:33:37;;;;;;;27.52;13.82;;;7.50;99.90;;;;;;5096128;28;20024;-78
2022/03/15 01:36:03;;;;;;;35.13;14.88;;;7.60;99.90;;;;;;5095726;28;20024;-78
2022/03/15 01:38:29;;;;;;;36.50;15.88;;;7.60;99.90;;;;;;5095567;28;20056;-78
2022/03/15 01:40:54;;;;;;;30.95;15.43;;;7.60;99.90;;;;;;5095875;28;20094;-79
2022/03/15 01:43:20;;;;;;;28.95;16.33;;;7.60;99.90;;;;;;5094824;28;20032;-79
2022/03/15 01:45:46;;;;;;;33.55;16.20;;;7.70;99.90;;;;;;5095701;28;20036;-79
2022/03/15 01:48:11;;;;;;;31.42;14.68;;;7.60;99.90;;;;;;5095676;28;20047;-78
2022/03/15 01:50:37;;;;;;;32.92;15.65;;;7.70;99.90;;;;;;5094770;28;20036;-78
2022/03/15 01:53:03;;;;;;;33.40;16.08;;;7.70;99.90;;;;;;5095703;28;20032;-78
2022/03/15 01:55:29;;;;;;;33.25;16.40;;;7.70;99.90;;;;;;5095322;28;20058;-78
2022/03/15 01:57:55;;;;;;;29.77;15.80;;;7.70;99.90;;;;;;5094784;28;20024;-78
2022/03/15 02:00:21;;;;;;;28.58;16.52;;;7.70;99.90;;;;;;5095424;28;20028;-78
2022/03/15 02:02:47;;;;;;;29.33;15.88;;;7.70;99.90;;;;;;5095779;28;20430;-79
2022/03/15 02:05:13;;;;;;;29.65;15.50;;;7.70;99.90;;;;;;5095155;28;20422;-79
2022/03/15 02:07:39;;;;;;;29.92;15.65;;;7.70;99.90;;;;;;5095838;28;20040;-79
2022/03/15 02:10:06;;;;;;;36.63;16.27;;;7.70;99.90;;;;;;5098236;28;20031;-79
2022/03/15 02:12:37;;;;;;;29.77;16.98;;;7.60;99.90;;;;;;5096629;28;20044;-78
2022/03/15 02:15:03;;;;;;;31.80;15.70;;;7.70;99.90;;;;;;5095765;28;20020;-79
2022/03/15 02:17:30;;;;;;;36.90;16.92;;;7.70;99.90;;;;;;5094829;28;20111;-78
2022/03/15 02:19:56;;;;;;;33.25;16.95;;;7.70;99.90;;;;;;5094752;28;20024;-79
2022/03/15 02:22:22;;;;;;;30.85;16.45;;;7.70;99.90;;;;;;5094802;28;20104;-78
2022/03/15 02:24:48;;;;;;;31.52;17.90;;;7.70;99.90;;;;;;5095091;28;20158;-78
2022/03/15 02:27:15;;;;;;;40.03;17.90;;;7.70;99.90;;;;;;5093991;28;20047;-78
2022/03/15 02:29:41;;;;;;;38.25;17.73;;;7.70;99.90;;;;;;5094900;28;20031;-79
2022/03/15 02:32:07;;;;;;;40.15;18.10;;;7.70;99.90;;;;;;5094883;28;20036;-78
2022/03/15 02:34:33;;;;;;;41.58;19.17;;;7.70;99.90;;;;;;5094215;28;20097;-78
2022/03/15 02:36:59;;;;;;;38.00;17.98;;;7.70;99.90;;;;;;5094851;28;20119;-78
2022/03/15 02:39:27;;;;;;;35.85;18.80;;;7.70;99.90;;;;;;5093595;28;20491;-79
2022/03/15 02:41:53;;;;;;;35.35;19.13;;;7.60;99.90;;;;;;5094550;28;20483;-78
2022/03/15 02:44:19;;;;;;;36.75;19.80;;;7.60;99.90;;;;;;5094546;28;20109;-78
2022/03/15 02:46:51;;;;;;;41.15;18.25;;;7.60;99.90;;;;;;5093984;28;20392;-79
2022/03/15 02:49:18;;;;;;;39.85;18.13;;;7.50;99.90;;;;;;5094234;28;20032;-77
2022/03/15 02:51:44;;;;;;;36.78;19.27;;;7.50;99.90;;;;;;5094455;28;20081;-78
2022/03/15 02:54:11;;;;;;;36.58;19.17;;;7.50;99.90;;;;;;5093394;28;20020;-78
2022/03/15 02:56:39;;;;;;;38.25;19.88;;;7.50;99.90;;;;;;5094397;28;20040;-79
2022/03/15 02:59:06;;;;;;;39.30;19.70;;;7.50;99.90;;;;;;5094546;28;20020;-78
2022/03/15 03:01:32;;;;;;;39.05;19.90;;;7.50;99.90;;;;;;5093532;28;20025;-78
2022/03/15 03:03:58;;;;;;;33.75;19.25;;;7.50;99.90;;;;;;5094144;28;20396;-78
2022/03/15 03:06:24;;;;;;;33.55;19.42;;;7.50;99.90;;;;;;5093536;28;20601;-78
2022/03/15 03:08:50;;;;;;;37.50;18.85;;;7.50;99.90;;;;;;5093183;28;20032;-78
2022/03/15 03:11:15;;;;;;;38.15;19.15;;;7.50;99.90;;;;;;5093964;28;20039;-78
2022/03/15 03:13:42;;;;;;;36.40;18.77;;;7.50;99.90;;;;;;5093904;28;20076;-78
2022/03/15 03:16:07;;;;;;;43.30;19.33;;;7.40;99.90;;;;;;5093012;28;20048;-78
2022/03/15 03:18:34;;;;;;;30.45;18.42;;;7.40;99.90;;;;;;5093911;28;20107;-78
2022/03/15 03:21:04;;;;;;;31.90;19.05;;;7.40;99.90;;;;;;5093830;28;20032;-79
2022/03/15 03:23:31;;;;;;;42.40;20.57;;;7.40;99.90;;;;;;5092447;28;20532;-78
2022/03/15 03:25:57;;;;;;;31.92;18.20;;;7.40;99.90;;;;;;5093465;28;20274;-79
2022/03/15 03:28:23;;;;;;;39.65;20.20;;;7.40;99.90;;;;;;5093578;28;20030;-78
2022/03/15 03:30:49;;;;;;;38.08;19.55;;;7.40;99.90;;;;;;5092996;28;20036;-79
2022/03/15 03:33:16;;;;;;;35.42;19.17;;;7.40;99.90;;;;;;5093359;28;20407;-79
2022/03/15 03:35:43;;;;;;;38.08;19.75;;;7.40;99.90;;;;;;5092887;28;20035;-79
2022/03/15 03:38:09;;;;;;;31.50;18.35;;;7.40;99.90;;;;;;5093265;28;20024;-79
2022/03/15 03:40:35;;;;;;;36.28;18.70;;;7.40;99.90;;;;;;5093592;28;20221;-78
2022/03/15 03:43:01;;;;;;;38.67;19.17;;;7.40;99.90;;;;;;5092669;28;20141;-78
2022/03/15 03:45:26;;;;;;;37.22;20.70;;;7.50;99.90;;;;;;5093142;28;20032;-78
2022/03/15 03:47:52;;;;;;;33.20;18.67;;;7.40;99.90;;;;;;5093179;28;20023;-77
2022/03/15 03:50:19;;;;;;;41.67;20.23;;;7.50;99.90;;;;;;5092351;28;20107;-78
2022/03/15 03:52:44;;;;;;;36.25;18.67;;;7.50;99.90;;;;;;5093385;28;20027;-78
2022/03/15 03:55:10;;;;;;;34.47;18.75;;;7.50;99.90;;;;;;5094335;28;20505;-79
2022/03/15 03:57:36;;;;;;;32.08;17.40;;;7.40;99.90;;;;;;5092558;28;20104;-79
2022/03/15 04:00:04;;;;;;;34.58;18.73;;;7.50;99.90;;;;;;5093589;28;20020;-79
2022/03/15 04:02:30;;;;;;;34.42;18.60;;;7.40;99.90;;;;;;5092723;28;20040;-78
2022/03/15 04:04:55;;;;;;;37.72;18.63;;;7.40;99.90;;;;;;5092344;28;20483;-79
2022/03/15 04:07:24;;;;;;;34.13;19.15;;;7.40;99.90;;;;;;5092559;28;20056;-78
2022/03/15 04:09:50;;;;;;;38.88;20.13;;;7.40;99.90;;;;;;5093119;28;20103;-78
2022/03/15 04:12:19;;;;;;;36.63;18.48;;;7.40;99.90;;;;;;5092287;28;20111;-77
2022/03/15 04:14:46;;;;;;;36.85;19.35;;;7.40;99.90;;;;;;5093826;28;20079;-78
2022/03/15 04:17:12;;;;;;;34.08;17.33;;;7.40;99.90;;;;;;5092841;28;20103;-78
2022/03/15 04:19:38;;;;;;;35.40;17.52;;;7.40;99.90;;;;;;5092236;28;20116;-77
2022/03/15 04:22:04;;;;;;;38.80;17.73;;;7.40;99.90;;;;;;5092816;28;20456;-77
2022/03/15 04:24:31;;;;;;;35.05;17.30;;;7.40;99.90;;;;;;5092626;28;20020;-77
2022/03/15 04:26:57;;;;;;;33.50;17.70;;;7.40;99.90;;;;;;5092620;28;20043;-77
2022/03/15 04:29:23;;;;;;;27.85;17.55;;;7.40;99.90;;;;;;5093145;28;20026;-78
2022/03/15 04:31:48;;;;;;;35.28;19.25;;;7.40;99.90;;;;;;5092663;28;20407;-78
2022/03/15 04:34:14;;;;;;;35.88;18.00;;;7.40;99.90;;;;;;5091566;28;20035;-78
2022/03/15 04:36:41;;;;;;;32.33;17.73;;;7.40;99.90;;;;;;5092648;28;20026;-78
2022/03/15 04:39:06;;;;;;;29.05;16.40;;;7.40;99.90;;;;;;5092505;28;20506;-78
2022/03/15 04:41:32;;;;;;;36.50;18.10;;;7.40;99.90;;;;;;5092424;28;20028;-77
2022/03/15 04:43:58;;;;;;;31.70;17.88;;;7.40;99.90;;;;;;5092660;28;20024;-78
2022/03/15 04:46:33;;;;;;;31.98;17.00;;;7.40;99.90;;;;;;5091451;28;20028;-77
2022/03/15 04:49:00;;;;;;;32.78;16.55;;;7.30;99.90;;;;;;5092405;28;20470;-77
2022/03/15 04:51:25;;;;;;;32.58;17.48;;;7.40;99.90;;;;;;5092278;28;20114;-76
2022/03/15 04:53:52;;;;;;;25.83;16.52;;;7.40;99.90;;;;;;5091877;28;20538;-77
2022/03/15 04:56:18;;;;;;;28.75;16.75;;;7.40;99.90;;;;;;5092263;28;20024;-77
2022/03/15 04:58:44;;;;;;;37.00;17.23;;;7.40;99.90;;;;;;5092483;28;20360;-78
2022/03/15 05:01:10;;;;;;;26.10;16.58;;;7.40;99.90;;;;;;5091288;28;20472;-77
2022/03/15 05:03:36;;;;;;;28.13;17.67;;;7.40;99.90;;;;;;5092204;28;20110;-77
2022/03/15 05:06:02;;;;;;;28.15;16.02;;;7.30;99.90;;;;;;5092406;28;20063;-77
2022/03/15 05:08:28;;;;;;;23.63;16.33;;;7.30;99.90;;;;;;5091576;28;20099;-77
2022/03/15 05:11:08;;;;;;;28.35;15.98;;;7.30;99.90;;;;;;5092368;28;20181;-79
2022/03/15 05:13:45;;;;;;;22.23;15.02;;;7.40;99.90;;;;;;5092250;28;20024;-78
2022/03/15 05:16:13;;;;;;;28.95;16.40;;;7.40;99.90;;;;;;5091453;28;20039;-78
2022/03/15 05:18:40;;;;;;;24.70;15.15;;;7.40;99.90;;;;;;5092393;28;20028;-78
2022/03/15 05:21:07;;;;;;;32.00;17.15;;;7.40;99.90;;;;;;5092066;28;20039;-78
2022/03/15 05:23:33;;;;;;;28.15;15.93;;;7.40;99.90;;;;;;5092166;28;20480;-79
2022/03/15 05:25:58;;;;;;;29.23;16.13;;;7.40;99.90;;;;;;5092038;28;20035;-78
2022/03/15 05:28:24;;;;;;;29.38;16.80;;;7.30;99.90;;;;;;5072692;28;20020;-78
2022/03/15 05:30:50;;;;;;;28.30;16.02;;;7.40;99.90;;;;;;5092212;28;20031;-78
2022/03/15 05:33:16;;;;;;;31.33;16.85;;;7.40;99.90;;;;;;5091871;28;20024;-78
2022/03/15 05:35:42;;;;;;;26.73;16.88;;;7.40;99.90;;;;;;5091373;28;20025;-78
2022/03/15 05:38:11;;;;;;;30.15;16.60;;;7.40;99.90;;;;;;5091737;28;20458;-78
2022/03/15 05:40:38;;;;;;;27.38;17.20;;;7.30;99.90;;;;;;5092054;28;20066;-79
2022/03/15 05:43:03;;;;;;;28.73;17.02;;;7.40;99.90;;;;;;5091364;28;20398;-79
2022/03/15 05:45:29;;;;;;;29.27;16.20;;;7.40;99.90;;;;;;5091946;28;20035;-78
2022/03/15 05:47:55;;;;;;;28.33;17.45;;;7.30;99.90;;;;;;5093503;28;20491;-78
2022/03/15 05:50:22;;;;;;;30.60;16.00;;;7.30;99.90;;;;;;5094487;28;20036;-78
2022/03/15 05:52:48;;;;;;;25.67;16.35;;;7.40;99.90;;;;;;5095310;28;20070;-78
2022/03/15 05:55:14;;;;;;;28.42;16.05;;;7.30;99.90;;;;;;5095338;28;20024;-78
2022/03/15 05:57:40;;;;;;;24.65;15.75;;;7.30;99.90;;;;;;5094706;28;20028;-79
2022/03/15 06:00:06;;;;;;;24.88;15.27;;;7.30;99.90;;;;;;5095652;28;20490;-78
2022/03/15 06:02:32;;;;;;;24.70;16.33;;;7.30;99.90;;;;;;5095157;28;20036;-77
2022/03/15 06:04:59;;;;;;;32.25;18.05;;;7.40;99.90;;;;;;5094230;28;20029;-78
2022/03/15 06:07:26;;;;;;;28.45;17.50;;;7.30;99.90;;;;;;5094633;28;20052;-78
2022/03/15 06:09:52;;;;;;;37.33;17.42;;;7.30;99.90;;;;;;5094829;28;20044;-78
2022/03/15 06:12:20;;;;;;;34.33;17.75;;;7.30;99.90;;;;;;5094246;28;20399;-78
2022/03/15 06:14:46;;;;;;;26.05;16.38;;;7.30;99.90;;;;;;5095395;28;20028;-78
2022/03/15 06:17:11;;;;;;;32.53;18.10;;;7.30;99.90;;;;;;5094982;28;20498;-78
2022/03/15 06:19:37;;;;;;;33.95;17.10;;;7.30;99.90;;;;;;5094465;28;20020;-78
2022/03/15 06:22:03;;;;;;;28.90;17.40;;;7.30;99.90;;;;;;5095968;28;20065;-78
2022/03/15 06:24:28;;;;;;;28.27;16.88;;;7.40;99.90;;;;;;5094359;28;20028;-76
2022/03/15 06:26:54;;;;;;;29.02;17.23;;;7.30;99.90;;;;;;5095164;28;20020;-77
2022/03/15 06:29:22;;;;;;;26.45;16.67;;;7.40;99.90;;;;;;5095046;28;20032;-78
2022/03/15 06:31:48;;;;;;;25.67;15.15;;;7.40;99.90;;;;;;5086349;28;20032;-78
2022/03/15 06:34:13;;;;;;;28.80;16.42;;;7.40;99.90;;;;;;5073074;28;20353;-76
2022/03/15 06:36:41;;;;;;;29.48;17.38;;;7.40;99.90;;;;;;5076041;28;20028;-76
2022/03/15 06:39:07;;;;;;;33.83;17.33;;;7.30;99.90;;;;;;5072067;28;20065;-77
2022/03/15 06:41:38;;;;;;;32.55;17.67;;;7.40;99.90;;;;;;5073536;28;20396;-77
2022/03/15 06:44:05;;;;;;;35.72;17.92;;;7.40;99.90;;;;;;5074779;28;20037;-77
2022/03/15 06:46:31;;;;;;;36.70;17.70;;;7.50;99.90;;;;;;5072148;28;20029;-78
2022/03/15 06:48:57;;;;;;;29.30;17.63;;;7.40;99.90;;;;;;5075419;28;20067;-78
2022/03/15 06:51:23;;;;;;;27.02;16.55;;;7.40;99.90;;;;;;5075819;28;20060;-77
2022/03/15 06:53:48;;;;;;;30.10;17.23;;;7.50;99.90;;;;;;5072098;28;20028;-78
2022/03/15 06:56:14;;;;;;;24.45;17.23;;;7.50;99.90;;;;;;5075579;28;20073;-78
2022/03/15 06:58:40;;;;;;;30.42;16.42;;;7.50;99.90;;;;;;5071931;28;20527;-78
2022/03/15 07:01:05;;;;;;;28.30;16.98;;;7.50;99.90;;;;;;5071716;28;20118;-78
2022/03/15 07:03:31;;;;;;;26.13;16.98;;;7.50;99.90;;;;;;5072726;28;20044;-78
2022/03/15 07:05:57;;;;;;;26.70;15.50;;;7.60;99.90;;;;;;5072532;28;20040;-77
2022/03/15 07:08:22;;;;;;;27.67;16.67;;;7.60;99.90;;;;;;5071193;28;20028;-77
2022/03/15 07:10:48;;;;;;;37.10;17.75;;;7.60;99.90;;;;;;5075519;28;20503;-77
2022/03/15 07:13:16;;;;;;;31.58;17.75;;;7.60;99.90;;;;;;5072730;28;20143;-77
2022/03/15 07:15:43;;;;;;;29.98;16.75;;;7.70;99.90;;;;;;5071737;28;20594;-78
2022/03/15 07:18:09;;;;;;;30.35;17.23;;;7.70;99.90;;;;;;5072316;28;20078;-77
2022/03/15 07:20:34;;;;;;;31.90;17.75;;;7.70;99.90;;;;;;5072554;28;20013;-77
2022/03/15 07:23:00;;;;;;;31.70;16.52;;;7.70;99.90;;;;;;5071709;28;20086;-79
2022/03/15 07:25:26;;;;;;;34.10;17.63;;;7.70;99.90;;;;;;5072544;28;20074;-78
2022/03/15 07:27:51;;;;;;;33.00;18.83;;;7.80;99.90;;;;;;5073861;28;20047;-77
2022/03/15 07:30:17;;;;;;;26.88;17.48;;;7.80;99.90;;;;;;5071906;28;20039;-77
2022/03/15 07:32:43;;;;;;;23.50;17.15;;;7.70;99.90;;;;;;5074941;28;20024;-77
2022/03/15 07:35:09;;;;;;;29.13;18.55;;;7.80;99.90;;;;;;5070902;28;20090;-78
2022/03/15 07:37:35;;;;;;;33.95;19.33;;;7.80;99.90;;;;;;5071935;28;20048;-77
2022/03/15 07:40:01;;;;;;;32.33;17.35;;;7.80;99.90;;;;;;5075338;28;20052;-79
2022/03/15 07:42:26;;;;;;;27.38;17.00;;;7.90;99.90;;;;;;5071171;28;20020;-78
2022/03/15 07:44:52;;;;;;;32.63;18.98;;;7.90;99.90;;;;;;5074087;28;20085;-78
2022/03/15 07:47:18;;;;;;;27.83;17.38;;;7.90;99.90;;;;;;5070035;28;20028;-78
2022/03/15 07:49:44;;;;;;;27.23;16.60;;;8.00;99.90;;;;;;5069800;28;20116;-78
2022/03/15 07:52:10;;;;;;;27.13;16.33;;;8.00;99.90;;;;;;5073001;28;20056;-78
2022/03/15 07:54:36;;;;;;;26.80;17.20;;;8.10;99.90;;;;;;5091257;28;20020;-78
2022/03/15 07:57:02;;;;;;;27.75;17.20;;;8.10;99.90;;;;;;5091562;28;20380;-78
2022/03/15 07:59:28;;;;;;;27.25;16.38;;;8.20;99.90;;;;;;5071644;28;20016;-78
2022/03/15 08:01:54;;;;;;;27.73;16.67;;;8.20;99.90;;;;;;5071703;28;20013;-79
2022/03/15 08:04:20;;;;;;;29.30;17.27;;;8.20;99.90;;;;;;5070811;28;20024;-78
2022/03/15 08:06:45;;;;;;;27.85;16.98;;;8.20;99.90;;;;;;5071302;28;20041;-79
2022/03/15 08:09:11;;;;;;;29.35;16.83;;;8.30;99.90;;;;;;5072342;28;20114;-77
2022/03/15 08:11:37;;;;;;;27.95;17.38;;;8.30;99.90;;;;;;5071707;28;20373;-77
2022/03/15 08:14:03;;;;;;;39.28;18.38;;;8.30;99.90;;;;;;5072840;28;20104;-77
2022/03/15 08:16:28;;;;;;;26.75;16.48;;;8.30;99.90;;;;;;5072708;28;20029;-76
2022/03/15 08:18:55;;;;;;;20.63;16.30;;;8.30;99.90;;;;;;5071970;28;20461;-76
2022/03/15 08:21:22;;;;;;;30.58;16.85;;;8.40;99.90;;;;;;5072224;28;20392;-76
2022/03/15 08:23:48;;;;;;;30.50;16.75;;;8.40;99.90;;;;;;5072918;28;20020;-76
2022/03/15 08:26:14;;;;;;;24.17;15.45;;;8.50;99.90;;;;;;5071708;28;20028;-76
2022/03/15 08:28:40;;;;;;;28.50;16.40;;;8.50;99.90;;;;;;5072469;28;20032;-76
2022/03/15 08:31:06;;;;;;;20.23;14.60;;;8.60;99.90;;;;;;5071785;28;20040;-77
2022/03/15 08:33:32;;;;;;;28.00;16.80;;;8.60;99.90;;;;;;5072762;28;20035;-78
2022/03/15 08:35:57;;;;;;;28.92;16.88;;;8.70;99.90;;;;;;5072639;28;20037;-79
2022/03/15 08:38:23;;;;;;;104.93;20.08;;;8.70;99.90;;;;;;5071965;28;20135;-79
2022/03/15 08:40:49;;;;;;;108.03;21.23;;;8.80;99.90;;;;;;5072812;28;20079;-77
2022/03/15 08:43:14;;;;;;;97.25;20.20;;;8.80;99.90;;;;;;5072559;28;20558;-81
2022/03/15 08:45:40;;;;;;;54.35;17.05;;;8.90;99.90;;;;;;5072307;28;20449;-81
2022/03/15 08:48:06;;;;;;;29.95;16.48;;;9.00;99.90;;;;;;5072439;28;20047;-78
2022/03/15 08:50:32;;;;;;;27.30;16.60;;;9.00;99.90;;;;;;5072534;28;20407;-77
2022/03/15 08:52:58;;;;;;;26.55;15.55;;;9.00;99.90;;;;;;5083494;28;20017;-78
2022/03/15 08:55:26;;;;;;;26.38;16.23;;;9.10;99.90;;;;;;5072270;28;20039;-77
2022/03/15 08:57:52;;;;;;;29.23;16.10;;;9.10;99.90;;;;;;5072901;28;20042;-79
2022/03/15 09:00:18;;;;;;;27.63;15.85;;;9.10;99.90;;;;;;5079527;28;20384;-79
2022/03/15 09:02:44;;;;;;;24.02;16.35;;;9.10;99.90;;;;;;5072324;28;20476;-78
2022/03/15 09:05:11;;;;;;;29.40;16.48;;;9.20;99.90;;;;;;5069287;28;20134;-79
2022/03/15 09:07:38;;;;;;;23.67;15.88;;;9.20;99.90;;;;;;5102700;28;20572;-77
2022/03/15 09:10:04;;;;;;;26.70;16.70;;;9.30;99.90;;;;;;5110986;28;20047;-79
2022/03/15 09:12:33;;;;;;;22.10;16.05;;;9.20;99.90;;;;;;5106199;28;20474;-79
2022/03/15 09:15:01;;;;;;;22.10;15.48;;;9.30;99.90;;;;;;5110583;28;20032;-79
2022/03/15 09:17:27;;;;;;;25.98;15.60;;;9.30;99.90;;;;;;5107370;28;20055;-79
2022/03/15 09:19:52;;;;;;;26.05;15.05;;;9.30;99.90;;;;;;5111803;28;20058;-80
2022/03/15 09:22:19;;;;;;;27.40;15.52;;;9.30;99.90;;;;;;5114016;28;20055;-80
2022/03/15 09:24:45;;;;;;;22.92;14.98;;;9.40;99.90;;;;;;5126884;28;20020;-81
2022/03/15 09:27:12;;;;;;;20.27;15.18;;;9.40;99.90;;;;;;5111433;28;20555;-82
2022/03/15 09:29:37;;;;;;;29.55;14.93;;;9.40;99.90;;;;;;5110608;28;20058;-83
2022/03/15 09:32:04;;;;;;;26.40;15.20;;;9.50;99.90;;;;;;5116003;28;20032;-79
2022/03/15 09:34:30;;;;;;;27.92;15.23;;;9.50;99.90;;;;;;5115575;28;20405;-83
2022/03/15 09:36:59;;;;;;;30.98;14.95;;;9.60;99.90;;;;;;5116845;28;20060;-81
2022/03/15 09:39:25;;;;;;;22.80;14.80;;;9.50;99.90;;;;;;5115613;28;20035;-75
2022/03/15 09:41:52;;;;;;;20.67;13.77;;;9.60;99.90;;;;;;5114874;28;20019;-82
2022/03/15 09:44:19;;;;;;;26.85;14.80;;;9.70;99.90;;;;;;5114636;28;20503;-80
2022/03/15 09:46:50;;;;;;;16.08;13.13;;;9.80;99.90;;;;;;5114938;28;20024;-80
2022/03/15 09:49:18;;;;;;;21.73;14.38;;;9.90;99.90;;;;;;5113438;28;20107;-81
2022/03/15 09:51:44;;;;;;;19.90;13.70;;;9.90;99.90;;;;;;5112133;28;20039;-81
2022/03/15 09:54:10;;;;;;;22.33;13.77;;;10.10;99.90;;;;;;5103935;28;20105;-83
2022/03/15 09:56:39;;;;;;;18.15;12.88;;;10.10;99.90;;;;;;5113700;28;20130;-81
2022/03/15 09:59:16;;;;;;;21.35;14.10;;;10.20;99.90;;;;;;5114970;28;20030;-83
2022/03/15 10:01:44;;;;;;;21.25;13.30;;;10.20;99.90;;;;;;5109610;28;20228;-83
2022/03/15 10:04:09;;;;;;;18.52;13.75;;;10.30;99.90;;;;;;5105694;28;20070;-83
2022/03/15 10:06:37;;;;;;;27.90;15.68;;;10.30;99.90;;;;;;5098662;28;20500;-82
2022/03/15 10:09:03;;;;;;;24.40;13.07;;;10.40;99.90;;;;;;5093974;28;20031;-81
2022/03/15 10:11:29;;;;;;;20.35;13.07;;;10.40;99.90;;;;;;5093690;28;20053;-80
2022/03/15 10:13:55;;;;;;;20.67;13.85;;;10.40;99.90;;;;;;5096364;28;20024;-80
2022/03/15 10:16:21;;;;;;;19.80;13.18;;;10.50;99.90;;;;;;5113633;28;20450;-81
2022/03/15 10:18:55;;;;;;;16.30;12.57;;;10.50;99.90;;;;;;5113419;28;20115;-78
2022/03/15 10:21:24;;;;;;;18.55;12.68;;;10.50;99.90;;;;;;5113030;28;20103;-80
2022/03/15 10:23:57;;;;;;;20.70;13.20;;;10.60;99.90;;;;;;5107604;28;20051;-73
2022/03/15 10:26:24;;;;;;;21.45;13.50;;;10.70;99.90;;;;;;5112989;28;20047;-83
2022/03/15 10:28:53;;;;;;;19.85;13.30;;;10.70;99.90;;;;;;5114724;28;20466;-83
2022/03/15 10:31:22;;;;;;;17.95;12.15;;;10.70;99.90;;;;;;5114537;28;20456;-80
2022/03/15 10:33:51;;;;;;;20.27;11.68;;;10.70;99.90;;;;;;5111143;28;20023;-84
2022/03/15 10:36:18;;;;;;;18.02;11.88;;;10.70;99.90;;;;;;5113950;28;20155;-77
2022/03/15 10:38:48;;;;;;;38.25;13.20;;;10.70;99.90;;;;;;5113037;28;20046;-85
2022/03/15 10:41:15;;;;;;;18.35;11.27;;;10.60;99.90;;;;;;5114295;28;20038;-75
2022/03/15 10:43:49;;;;;;;24.27;12.40;;;10.60;99.90;;;;;;5114967;28;20160;-88
2022/03/15 10:46:22;;;;;;;20.00;11.68;;;10.60;99.90;;;;;;5105755;28;20032;-86
2022/03/15 10:49:01;;;;;;;16.75;11.05;;;10.50;99.90;;;;;;5094967;28;20024;-88
2022/03/15 10:51:28;;;;;;;16.00;12.48;;;10.50;99.90;;;;;;5092608;28;20032;-88
2022/03/15 10:54:03;;;;;;;14.35;11.32;;;10.50;99.90;;;;;;5105004;28;20013;-88
2022/03/15 10:56:29;;;;;;;18.65;11.98;;;10.40;99.90;;;;;;5118612;28;20024;-86
2022/03/15 10:59:05;;;;;;;18.45;10.90;;;10.30;99.90;;;;;;5094087;28;20016;-88
2022/03/15 11:01:39;;;;;;;19.83;12.02;;;10.30;99.90;;;;;;5090134;28;20037;-89
2022/03/15 11:04:07;;;;;;;12.77;10.55;;;10.30;99.90;;;;;;5086986;28;20032;-88
2022/03/15 11:07:03;;;;;;;21.25;11.90;;;10.20;99.90;;;;;;5097911;28;20075;-88
2022/03/15 11:09:32;;;;;;;18.20;11.60;;;10.30;99.90;;;;;;5080509;28;20088;-86
2022/03/15 11:12:04;;;;;;;20.35;12.77;;;10.40;99.90;;;;;;5087957;28;20048;-88
2022/03/15 11:14:44;;;;;;;17.35;11.48;;;10.40;99.90;;;;;;5094610;28;20107;-87
2022/03/15 11:17:18;;;;;;;17.52;11.18;;;10.50;99.90;;;;;;5082502;28;20400;-87
2022/03/15 11:19:46;;;;;;;14.82;11.05;;;10.60;99.90;;;;;;5079232;28;20020;-87
2022/03/15 11:22:27;;;;;;;11.93;10.40;;;10.70;99.90;;;;;;5084574;28;20032;-84
2022/03/15 11:25:14;;;;;;;17.55;11.40;;;10.90;99.90;;;;;;5094580;28;20020;-85
2022/03/15 11:27:42;;;;;;;14.88;10.30;;;11.00;99.90;;;;;;5089792;28;20131;-85
2022/03/15 11:30:11;;;;;;;14.18;11.73;;;11.10;99.90;;;;;;5075198;28;20070;-84
2022/03/15 11:32:37;;;;;;;16.55;11.38;;;11.20;99.90;;;;;;5079606;28;20058;-86
2022/03/15 11:35:04;;;;;;;16.88;10.77;;;11.30;99.90;;;;;;5077057;28;20101;-87
2022/03/15 11:37:31;;;;;;;15.13;11.30;;;11.40;99.90;;;;;;5088849;28;20033;-89
2022/03/15 11:39:58;;;;;;;20.10;12.00;;;11.50;99.90;;;;;;5080165;28;20036;-88
2022/03/15 11:42:26;;;;;;;16.60;11.90;;;11.50;99.90;;;;;;5075298;28;20036;-89
2022/03/15 11:45:24;;;;;;;14.65;11.32;;;11.60;99.90;;;;;;5074768;28;20384;-89
2022/03/15 11:48:12;;;;;;;16.70;10.75;;;11.70;99.90;;;;;;5075548;28;20074;-88
2022/03/15 11:51:03;;;;;;;27.20;10.77;;;11.80;99.90;;;;;;5075406;28;20511;-88
2022/03/15 11:53:48;;;;;;;16.35;12.60;;;11.80;99.90;;;;;;5074020;28;20032;-86
2022/03/15 11:56:17;;;;;;;19.48;11.15;;;11.90;99.90;;;;;;5076767;28;20083;-88
2022/03/15 11:58:55;;;;;;;14.63;11.90;;;12.00;99.90;;;;;;5078641;28;20017;-87
2022/03/15 12:01:23;;;;;;;17.10;11.90;;;12.10;99.90;;;;;;5076158;28;20480;-87
2022/03/15 12:03:55;;;;;;;14.63;10.25;;;12.20;99.90;;;;;;5087616;28;20488;-86
2022/03/15 12:06:26;;;;;;;12.60;10.05;;;12.30;99.90;;;;;;5074289;28;20045;-87
2022/03/15 12:08:56;;;;;;;17.27;9.38;;;12.40;99.90;;;;;;5082973;28;20027;-88
2022/03/15 12:11:36;;;;;;;14.68;8.48;;;12.50;99.90;;;;;;5076953;28;20388;-88
2022/03/15 12:14:13;;;;;;;9.45;8.10;;;12.50;99.90;;;;;;5081634;28;20024;-87
2022/03/15 12:16:47;;;;;;;9.70;7.18;;;12.60;99.90;;;;;;5093298;28;20058;-87
2022/03/15 12:22:09;;;;;;;8.25;7.43;;;12.80;99.90;;;;;;5082449;28;20070;-87
2022/03/15 12:24:45;;;;;;;8.52;7.63;;;12.90;99.90;;;;;;5085425;28;20033;-87
2022/03/15 12:27:14;;;;;;;7.43;6.72;;;12.90;99.90;;;;;;5093290;28;20023;-87
2022/03/15 12:29:50;;;;;;;9.63;6.20;;;13.00;99.90;;;;;;5084386;28;20013;-88
2022/03/15 12:32:19;;;;;;;7.68;6.55;;;13.10;99.90;;;;;;5082229;28;20047;-87
2022/03/15 12:34:50;;;;;;;9.15;6.70;;;13.10;99.90;;;;;;5088271;28;20036;-87
2022/03/15 12:37:31;;;;;;;12.32;6.15;;;13.20;99.90;;;;;;5083043;28;20028;-88
2022/03/15 12:39:58;;;;;;;8.65;6.15;;;13.30;99.90;;;;;;5080475;28;20021;-87